Brandon, Wisconsin
Current Conditions -  °F | °C
As of 7:53 PM on Monday 20 Oct 2014 (Local Time) from KFLD Reporting Station
Overcast Overcast  
Wind Chill: 50°   Ceiling: 5000
Heat Index: 50°   Visibility: 10mi
Dew Point: 43°   Wind: 6mph
Humidity: 77%   Direction: 320°NW
Pressure: 30"   Gusts: NA
Location:  43.74°N, 88.78°W
Report Text: KFLD 210053Z AUTO 32005KT 10SM SCT037 OVC050 10/06 A3000 RMK AO2 SLP162 T01000061
Loading
Personal Weather Stations






























Interactive Weather Map New forecast layout! Learn more

10-Day Weather Forecast

Advertisements
Track Severe Weather on mobile